sensor_id;sensor_type;location;lat;lon;timestamp;P1;durP1;ratioP1;P2;durP2;ratioP2
65583;SDS011;73032;43.592;1.458;2023-10-13T00:00:27;6.85;;;3.67;;
65583;SDS011;73032;43.592;1.458;2023-10-13T00:03:03;7.22;;;4.28;;
65583;SDS011;73032;43.592;1.458;2023-10-13T00:05:41;7.55;;;4.10;;
65583;SDS011;73032;43.592;1.458;2023-10-13T00:08:09;7.00;;;4.20;;
65583;SDS011;73032;43.592;1.458;2023-10-13T00:10:36;7.50;;;3.83;;
65583;SDS011;73032;43.592;1.458;2023-10-13T00:13:03;7.28;;;4.78;;
65583;SDS011;73032;43.592;1.458;2023-10-13T00:15:40;6.65;;;4.65;;
65583;SDS011;73032;43.592;1.458;2023-10-13T00:18:23;7.25;;;4.70;;
65583;SDS011;73032;43.592;1.458;2023-10-13T00:21:02;7.93;;;4.93;;
65583;SDS011;73032;43.592;1.458;2023-10-13T00:23:42;7.32;;;4.75;;
65583;SDS011;73032;43.592;1.458;2023-10-13T00:28:51;9.95;;;6.10;;
65583;SDS011;73032;43.592;1.458;2023-10-13T00:31:25;11.50;;;5.82;;
65583;SDS011;73032;43.592;1.458;2023-10-13T00:34:03;8.25;;;5.38;;
65583;SDS011;73032;43.592;1.458;2023-10-13T00:36:39;8.18;;;5.32;;
65583;SDS011;73032;43.592;1.458;2023-10-13T00:39:36;8.50;;;5.60;;
65583;SDS011;73032;43.592;1.458;2023-10-13T00:42:06;9.07;;;5.65;;
65583;SDS011;73032;43.592;1.458;2023-10-13T00:44:34;8.00;;;6.05;;
65583;SDS011;73032;43.592;1.458;2023-10-13T00:47:10;11.90;;;7.03;;
65583;SDS011;73032;43.592;1.458;2023-10-13T00:49:48;9.88;;;6.03;;
65583;SDS011;73032;43.592;1.458;2023-10-13T00:52:15;10.50;;;5.43;;
65583;SDS011;73032;43.592;1.458;2023-10-13T00:54:44;9.43;;;6.28;;
65583;SDS011;73032;43.592;1.458;2023-10-13T00:59:55;8.43;;;5.03;;
65583;SDS011;73032;43.592;1.458;2023-10-13T01:02:33;9.80;;;5.45;;
65583;SDS011;73032;43.592;1.458;2023-10-13T01:05:06;9.30;;;5.78;;
65583;SDS011;73032;43.592;1.458;2023-10-13T01:07:37;10.85;;;6.80;;
65583;SDS011;73032;43.592;1.458;2023-10-13T01:10:04;9.95;;;6.32;;
65583;SDS011;73032;43.592;1.458;2023-10-13T01:12:35;10.27;;;6.05;;
65583;SDS011;73032;43.592;1.458;2023-10-13T01:15:02;9.18;;;6.25;;
65583;SDS011;73032;43.592;1.458;2023-10-13T01:17:35;10.07;;;6.18;;
65583;SDS011;73032;43.592;1.458;2023-10-13T01:20:03;7.95;;;5.65;;
65583;SDS011;73032;43.592;1.458;2023-10-13T01:22:31;10.45;;;7.05;;
65583;SDS011;73032;43.592;1.458;2023-10-13T01:24:59;12.57;;;6.85;;
65583;SDS011;73032;43.592;1.458;2023-10-13T01:27:45;9.40;;;5.70;;
65583;SDS011;73032;43.592;1.458;2023-10-13T01:30:15;10.00;;;6.50;;
65583;SDS011;73032;43.592;1.458;2023-10-13T01:32:42;10.95;;;5.40;;
65583;SDS011;73032;43.592;1.458;2023-10-13T01:35:11;9.48;;;5.72;;
65583;SDS011;73032;43.592;1.458;2023-10-13T01:37:38;10.60;;;6.43;;
65583;SDS011;73032;43.592;1.458;2023-10-13T01:40:05;11.13;;;5.90;;
65583;SDS011;73032;43.592;1.458;2023-10-13T01:42:32;10.50;;;6.60;;
65583;SDS011;73032;43.592;1.458;2023-10-13T01:44:59;8.43;;;5.88;;
65583;SDS011;73032;43.592;1.458;2023-10-13T01:47:32;10.38;;;6.40;;
65583;SDS011;73032;43.592;1.458;2023-10-13T01:50:02;10.77;;;6.40;;
65583;SDS011;73032;43.592;1.458;2023-10-13T01:52:40;12.90;;;6.20;;
65583;SDS011;73032;43.592;1.458;2023-10-13T01:55:08;8.93;;;5.93;;
65583;SDS011;73032;43.592;1.458;2023-10-13T01:57:38;8.57;;;5.70;;
65583;SDS011;73032;43.592;1.458;2023-10-13T02:00:06;12.40;;;6.53;;
65583;SDS011;73032;43.592;1.458;2023-10-13T02:02:46;8.45;;;5.43;;
65583;SDS011;73032;43.592;1.458;2023-10-13T02:05:16;11.07;;;5.65;;
65583;SDS011;73032;43.592;1.458;2023-10-13T02:07:43;9.77;;;5.68;;
65583;SDS011;73032;43.592;1.458;2023-10-13T02:10:13;12.55;;;5.63;;
65583;SDS011;73032;43.592;1.458;2023-10-13T02:12:40;8.45;;;6.30;;
65583;SDS011;73032;43.592;1.458;2023-10-13T02:15:10;9.82;;;5.78;;
65583;SDS011;73032;43.592;1.458;2023-10-13T02:17:47;8.68;;;5.47;;
65583;SDS011;73032;43.592;1.458;2023-10-13T02:20:18;11.70;;;6.85;;
65583;SDS011;73032;43.592;1.458;2023-10-13T02:22:49;10.10;;;6.15;;
65583;SDS011;73032;43.592;1.458;2023-10-13T02:25:16;10.30;;;6.32;;
65583;SDS011;73032;43.592;1.458;2023-10-13T02:28:01;9.82;;;6.10;;
65583;SDS011;73032;43.592;1.458;2023-10-13T02:30:28;10.68;;;6.65;;
65583;SDS011;73032;43.592;1.458;2023-10-13T02:32:55;8.60;;;5.93;;
65583;SDS011;73032;43.592;1.458;2023-10-13T02:35:24;9.30;;;6.18;;
65583;SDS011;73032;43.592;1.458;2023-10-13T02:37:57;10.20;;;6.45;;
65583;SDS011;73032;43.592;1.458;2023-10-13T02:40:34;9.45;;;6.40;;
65583;SDS011;73032;43.592;1.458;2023-10-13T02:45:31;7.85;;;6.03;;
65583;SDS011;73032;43.592;1.458;2023-10-13T02:48:05;12.13;;;6.78;;
65583;SDS011;73032;43.592;1.458;2023-10-13T02:50:44;10.23;;;6.05;;
65583;SDS011;73032;43.592;1.458;2023-10-13T02:53:12;8.65;;;6.03;;
65583;SDS011;73032;43.592;1.458;2023-10-13T02:55:55;11.93;;;6.35;;
65583;SDS011;73032;43.592;1.458;2023-10-13T02:58:31;9.35;;;6.60;;
65583;SDS011;73032;43.592;1.458;2023-10-13T03:01:05;9.60;;;5.80;;
65583;SDS011;73032;43.592;1.458;2023-10-13T03:03:44;11.90;;;5.93;;
65583;SDS011;73032;43.592;1.458;2023-10-13T03:06:14;8.73;;;5.75;;
65583;SDS011;73032;43.592;1.458;2023-10-13T03:08:41;9.68;;;5.72;;
65583;SDS011;73032;43.592;1.458;2023-10-13T03:11:10;10.88;;;6.63;;
65583;SDS011;73032;43.592;1.458;2023-10-13T03:13:37;9.52;;;5.80;;
65583;SDS011;73032;43.592;1.458;2023-10-13T03:16:14;7.90;;;5.30;;
65583;SDS011;73032;43.592;1.458;2023-10-13T03:18:46;8.40;;;5.40;;
65583;SDS011;73032;43.592;1.458;2023-10-13T03:21:23;9.85;;;5.32;;
65583;SDS011;73032;43.592;1.458;2023-10-13T03:24:03;9.30;;;5.70;;
65583;SDS011;73032;43.592;1.458;2023-10-13T03:29:03;11.93;;;5.72;;
65583;SDS011;73032;43.592;1.458;2023-10-13T03:31:34;9.65;;;5.85;;
65583;SDS011;73032;43.592;1.458;2023-10-13T03:34:04;8.82;;;5.80;;
65583;SDS011;73032;43.592;1.458;2023-10-13T03:36:36;9.50;;;6.03;;
65583;SDS011;73032;43.592;1.458;2023-10-13T03:39:21;10.02;;;5.80;;
65583;SDS011;73032;43.592;1.458;2023-10-13T03:41:55;10.52;;;5.88;;
65583;SDS011;73032;43.592;1.458;2023-10-13T03:44:23;10.23;;;6.30;;
65583;SDS011;73032;43.592;1.458;2023-10-13T03:46:56;8.88;;;5.25;;
65583;SDS011;73032;43.592;1.458;2023-10-13T03:49:23;8.82;;;5.68;;
65583;SDS011;73032;43.592;1.458;2023-10-13T03:51:51;11.07;;;5.82;;
65583;SDS011;73032;43.592;1.458;2023-10-13T03:54:21;10.25;;;6.13;;
65583;SDS011;73032;43.592;1.458;2023-10-13T03:56:47;8.52;;;5.88;;
65583;SDS011;73032;43.592;1.458;2023-10-13T03:59:18;10.77;;;6.70;;
65583;SDS011;73032;43.592;1.458;2023-10-13T04:01:48;12.27;;;5.97;;
65583;SDS011;73032;43.592;1.458;2023-10-13T04:04:18;13.35;;;6.40;;
65583;SDS011;73032;43.592;1.458;2023-10-13T04:07:02;8.07;;;5.78;;
65583;SDS011;73032;43.592;1.458;2023-10-13T04:09:31;9.25;;;6.03;;
65583;SDS011;73032;43.592;1.458;2023-10-13T04:12:05;9.23;;;5.88;;
65583;SDS011;73032;43.592;1.458;2023-10-13T04:14:40;7.95;;;5.47;;
65583;SDS011;73032;43.592;1.458;2023-10-13T04:17:07;9.45;;;6.50;;
65583;SDS011;73032;43.592;1.458;2023-10-13T04:19:41;7.07;;;5.15;;
65583;SDS011;73032;43.592;1.458;2023-10-13T04:22:27;9.23;;;5.88;;
65583;SDS011;73032;43.592;1.458;2023-10-13T04:27:59;8.88;;;6.28;;
65583;SDS011;73032;43.592;1.458;2023-10-13T04:30:44;7.45;;;5.63;;
65583;SDS011;73032;43.592;1.458;2023-10-13T04:33:32;8.45;;;5.88;;
65583;SDS011;73032;43.592;1.458;2023-10-13T04:36:13;8.75;;;5.50;;
65583;SDS011;73032;43.592;1.458;2023-10-13T04:38:52;9.18;;;6.38;;
65583;SDS011;73032;43.592;1.458;2023-10-13T04:41:29;8.95;;;5.70;;
65583;SDS011;73032;43.592;1.458;2023-10-13T04:44:14;10.80;;;6.28;;
65583;SDS011;73032;43.592;1.458;2023-10-13T04:47:01;12.18;;;6.32;;
65583;SDS011;73032;43.592;1.458;2023-10-13T04:49:29;10.38;;;6.30;;
65583;SDS011;73032;43.592;1.458;2023-10-13T04:52:06;8.27;;;5.28;;
65583;SDS011;73032;43.592;1.458;2023-10-13T04:54:36;9.50;;;6.53;;
65583;SDS011;73032;43.592;1.458;2023-10-13T04:57:20;7.82;;;5.28;;
65583;SDS011;73032;43.592;1.458;2023-10-13T05:00:02;8.73;;;6.00;;
65583;SDS011;73032;43.592;1.458;2023-10-13T05:02:39;11.68;;;6.60;;
65583;SDS011;73032;43.592;1.458;2023-10-13T05:05:32;9.40;;;6.10;;
65583;SDS011;73032;43.592;1.458;2023-10-13T05:08:12;9.33;;;6.07;;
65583;SDS011;73032;43.592;1.458;2023-10-13T05:11:03;10.10;;;5.57;;
65583;SDS011;73032;43.592;1.458;2023-10-13T05:16:34;9.02;;;5.85;;
65583;SDS011;73032;43.592;1.458;2023-10-13T05:19:20;7.88;;;5.25;;
65583;SDS011;73032;43.592;1.458;2023-10-13T05:22:05;9.48;;;5.75;;
65583;SDS011;73032;43.592;1.458;2023-10-13T05:24:50;13.23;;;6.88;;
65583;SDS011;73032;43.592;1.458;2023-10-13T05:27:35;8.52;;;5.28;;
65583;SDS011;73032;43.592;1.458;2023-10-13T05:30:20;8.30;;;5.65;;
65583;SDS011;73032;43.592;1.458;2023-10-13T05:33:05;11.00;;;5.82;;
65583;SDS011;73032;43.592;1.458;2023-10-13T05:35:50;11.55;;;6.13;;
65583;SDS011;73032;43.592;1.458;2023-10-13T05:38:35;8.38;;;6.15;;
65583;SDS011;73032;43.592;1.458;2023-10-13T05:41:22;14.05;;;6.50;;
65583;SDS011;73032;43.592;1.458;2023-10-13T05:44:07;12.73;;;6.03;;
65583;SDS011;73032;43.592;1.458;2023-10-13T05:46:52;7.82;;;5.30;;
65583;SDS011;73032;43.592;1.458;2023-10-13T05:49:48;9.05;;;5.35;;
65583;SDS011;73032;43.592;1.458;2023-10-13T05:52:31;8.93;;;6.15;;
65583;SDS011;73032;43.592;1.458;2023-10-13T05:55:16;9.43;;;5.72;;
65583;SDS011;73032;43.592;1.458;2023-10-13T05:58:01;10.85;;;5.70;;
65583;SDS011;73032;43.592;1.458;2023-10-13T06:00:46;10.30;;;5.70;;
65583;SDS011;73032;43.592;1.458;2023-10-13T06:03:31;10.23;;;5.45;;
65583;SDS011;73032;43.592;1.458;2023-10-13T06:06:16;10.10;;;5.85;;
65583;SDS011;73032;43.592;1.458;2023-10-13T06:09:01;8.13;;;5.45;;
65583;SDS011;73032;43.592;1.458;2023-10-13T06:11:46;11.63;;;5.75;;
65583;SDS011;73032;43.592;1.458;2023-10-13T06:14:31;8.45;;;5.35;;
65583;SDS011;73032;43.592;1.458;2023-10-13T06:17:17;7.45;;;5.28;;
65583;SDS011;73032;43.592;1.458;2023-10-13T06:20:02;8.00;;;5.68;;
65583;SDS011;73032;43.592;1.458;2023-10-13T06:22:48;7.88;;;4.50;;
65583;SDS011;73032;43.592;1.458;2023-10-13T06:25:33;9.88;;;6.00;;
65583;SDS011;73032;43.592;1.458;2023-10-13T06:28:19;10.38;;;6.25;;
65583;SDS011;73032;43.592;1.458;2023-10-13T06:31:05;8.40;;;5.35;;
65583;SDS011;73032;43.592;1.458;2023-10-13T06:33:34;8.93;;;5.97;;
65583;SDS011;73032;43.592;1.458;2023-10-13T06:36:01;11.10;;;6.10;;
65583;SDS011;73032;43.592;1.458;2023-10-13T06:38:36;10.80;;;5.90;;
65583;SDS011;73032;43.592;1.458;2023-10-13T06:41:06;7.20;;;5.22;;
65583;SDS011;73032;43.592;1.458;2023-10-13T06:43:34;10.38;;;5.55;;
65583;SDS011;73032;43.592;1.458;2023-10-13T06:46:07;7.57;;;5.90;;
65583;SDS011;73032;43.592;1.458;2023-10-13T06:48:41;10.82;;;5.38;;
65583;SDS011;73032;43.592;1.458;2023-10-13T06:51:09;10.85;;;5.55;;
65583;SDS011;73032;43.592;1.458;2023-10-13T06:53:45;7.57;;;5.63;;
65583;SDS011;73032;43.592;1.458;2023-10-13T06:56:14;11.60;;;5.78;;
65583;SDS011;73032;43.592;1.458;2023-10-13T06:58:48;10.43;;;5.47;;
65583;SDS011;73032;43.592;1.458;2023-10-13T07:01:15;11.10;;;6.15;;
65583;SDS011;73032;43.592;1.458;2023-10-13T07:03:42;8.10;;;5.45;;
65583;SDS011;73032;43.592;1.458;2023-10-13T07:06:10;9.45;;;4.88;;
65583;SDS011;73032;43.592;1.458;2023-10-13T07:08:44;8.55;;;5.93;;
65583;SDS011;73032;43.592;1.458;2023-10-13T07:11:15;9.02;;;5.18;;
65583;SDS011;73032;43.592;1.458;2023-10-13T07:13:49;11.65;;;6.55;;
65583;SDS011;73032;43.592;1.458;2023-10-13T07:16:17;9.02;;;5.97;;
65583;SDS011;73032;43.592;1.458;2023-10-13T07:18:55;9.55;;;6.05;;
65583;SDS011;73032;43.592;1.458;2023-10-13T07:21:22;9.73;;;5.60;;
65583;SDS011;73032;43.592;1.458;2023-10-13T07:23:58;9.57;;;5.82;;
65583;SDS011;73032;43.592;1.458;2023-10-13T07:26:35;8.90;;;5.60;;
65583;SDS011;73032;43.592;1.458;2023-10-13T07:29:22;11.80;;;6.80;;
65583;SDS011;73032;43.592;1.458;2023-10-13T07:31:51;11.50;;;6.40;;
65583;SDS011;73032;43.592;1.458;2023-10-13T07:34:18;8.75;;;5.55;;
65583;SDS011;73032;43.592;1.458;2023-10-13T07:36:53;10.02;;;5.72;;
65583;SDS011;73032;43.592;1.458;2023-10-13T07:39:21;7.78;;;5.65;;
65583;SDS011;73032;43.592;1.458;2023-10-13T07:41:50;9.15;;;5.57;;
65583;SDS011;73032;43.592;1.458;2023-10-13T07:44:22;10.82;;;6.38;;
65583;SDS011;73032;43.592;1.458;2023-10-13T07:46:52;7.23;;;5.10;;
65583;SDS011;73032;43.592;1.458;2023-10-13T07:49:28;10.57;;;6.40;;
65583;SDS011;73032;43.592;1.458;2023-10-13T07:52:17;12.93;;;5.97;;
65583;SDS011;73032;43.592;1.458;2023-10-13T07:54:49;11.02;;;5.60;;
65583;SDS011;73032;43.592;1.458;2023-10-13T07:57:51;8.93;;;5.20;;
65583;SDS011;73032;43.592;1.458;2023-10-13T08:00:34;9.43;;;5.57;;
65583;SDS011;73032;43.592;1.458;2023-10-13T08:03:09;10.00;;;5.35;;
65583;SDS011;73032;43.592;1.458;2023-10-13T08:05:36;8.48;;;5.65;;
65583;SDS011;73032;43.592;1.458;2023-10-13T08:08:22;8.05;;;5.72;;
65583;SDS011;73032;43.592;1.458;2023-10-13T08:10:52;6.93;;;4.97;;
65583;SDS011;73032;43.592;1.458;2023-10-13T08:13:27;7.35;;;4.50;;
65583;SDS011;73032;43.592;1.458;2023-10-13T08:15:54;7.03;;;5.18;;
65583;SDS011;73032;43.592;1.458;2023-10-13T08:18:20;7.32;;;5.20;;
65583;SDS011;73032;43.592;1.458;2023-10-13T08:21:03;8.52;;;4.65;;
65583;SDS011;73032;43.592;1.458;2023-10-13T08:23:30;9.75;;;5.03;;
65583;SDS011;73032;43.592;1.458;2023-10-13T08:26:21;9.65;;;5.05;;
65583;SDS011;73032;43.592;1.458;2023-10-13T08:29:03;8.45;;;4.60;;
65583;SDS011;73032;43.592;1.458;2023-10-13T08:31:49;5.78;;;3.83;;
65583;SDS011;73032;43.592;1.458;2023-10-13T08:34:36;9.20;;;4.50;;
65583;SDS011;73032;43.592;1.458;2023-10-13T08:37:12;7.47;;;4.30;;
65583;SDS011;73032;43.592;1.458;2023-10-13T08:39:49;8.70;;;3.78;;
65583;SDS011;73032;43.592;1.458;2023-10-13T08:42:48;13.07;;;4.67;;
65583;SDS011;73032;43.592;1.458;2023-10-13T08:45:38;12.25;;;4.43;;
65583;SDS011;73032;43.592;1.458;2023-10-13T08:48:09;6.13;;;4.00;;
65583;SDS011;73032;43.592;1.458;2023-10-13T08:53:25;9.20;;;4.30;;
65583;SDS011;73032;43.592;1.458;2023-10-13T08:56:04;8.30;;;4.43;;
65583;SDS011;73032;43.592;1.458;2023-10-13T08:58:42;6.05;;;3.88;;
65583;SDS011;73032;43.592;1.458;2023-10-13T09:04:15;9.20;;;4.20;;
65583;SDS011;73032;43.592;1.458;2023-10-13T09:09:27;6.40;;;4.00;;
65583;SDS011;73032;43.592;1.458;2023-10-13T09:12:10;6.35;;;4.20;;
65583;SDS011;73032;43.592;1.458;2023-10-13T09:14:41;11.10;;;4.28;;
65583;SDS011;73032;43.592;1.458;2023-10-13T09:17:13;7.05;;;4.15;;
65583;SDS011;73032;43.592;1.458;2023-10-13T09:19:50;10.02;;;4.50;;
65583;SDS011;73032;43.592;1.458;2023-10-13T09:24:55;10.33;;;4.20;;
65583;SDS011;73032;43.592;1.458;2023-10-13T09:30:00;10.63;;;3.90;;
65583;SDS011;73032;43.592;1.458;2023-10-13T09:32:36;7.38;;;3.85;;
65583;SDS011;73032;43.592;1.458;2023-10-13T09:35:16;6.57;;;4.15;;
65583;SDS011;73032;43.592;1.458;2023-10-13T09:37:53;5.50;;;4.00;;
65583;SDS011;73032;43.592;1.458;2023-10-13T09:40:23;6.68;;;4.00;;
65583;SDS011;73032;43.592;1.458;2023-10-13T09:43:00;6.47;;;4.22;;
65583;SDS011;73032;43.592;1.458;2023-10-13T09:45:41;8.10;;;4.20;;
65583;SDS011;73032;43.592;1.458;2023-10-13T09:48:33;7.40;;;4.00;;
65583;SDS011;73032;43.592;1.458;2023-10-13T09:51:02;8.63;;;4.32;;
65583;SDS011;73032;43.592;1.458;2023-10-13T09:53:35;9.30;;;3.78;;
65583;SDS011;73032;43.592;1.458;2023-10-13T09:56:25;8.57;;;3.73;;
65583;SDS011;73032;43.592;1.458;2023-10-13T09:58:56;9.32;;;3.72;;
65583;SDS011;73032;43.592;1.458;2023-10-13T10:01:37;6.85;;;3.78;;
65583;SDS011;73032;43.592;1.458;2023-10-13T10:04:17;4.97;;;3.60;;
65583;SDS011;73032;43.592;1.458;2023-10-13T10:06:52;6.57;;;3.65;;
65583;SDS011;73032;43.592;1.458;2023-10-13T10:09:26;4.95;;;3.90;;
65583;SDS011;73032;43.592;1.458;2023-10-13T10:12:09;5.20;;;3.40;;
65583;SDS011;73032;43.592;1.458;2023-10-13T10:17:47;6.63;;;3.40;;
65583;SDS011;73032;43.592;1.458;2023-10-13T10:20:16;5.43;;;3.53;;
65583;SDS011;73032;43.592;1.458;2023-10-13T10:22:59;5.95;;;3.72;;
65583;SDS011;73032;43.592;1.458;2023-10-13T10:25:30;5.78;;;3.45;;
65583;SDS011;73032;43.592;1.458;2023-10-13T10:28:02;4.50;;;3.38;;
65583;SDS011;73032;43.592;1.458;2023-10-13T10:30:33;6.82;;;3.90;;
65583;SDS011;73032;43.592;1.458;2023-10-13T10:33:05;8.90;;;3.85;;
65583;SDS011;73032;43.592;1.458;2023-10-13T10:35:59;7.00;;;3.50;;
65583;SDS011;73032;43.592;1.458;2023-10-13T10:38:27;5.10;;;3.53;;
65583;SDS011;73032;43.592;1.458;2023-10-13T10:40:57;7.88;;;3.72;;
65583;SDS011;73032;43.592;1.458;2023-10-13T10:43:35;7.00;;;3.67;;
65583;SDS011;73032;43.592;1.458;2023-10-13T10:46:26;5.10;;;3.30;;
65583;SDS011;73032;43.592;1.458;2023-10-13T10:48:57;4.15;;;3.20;;
65583;SDS011;73032;43.592;1.458;2023-10-13T10:51:27;7.63;;;3.78;;
65583;SDS011;73032;43.592;1.458;2023-10-13T10:53:58;5.55;;;3.13;;
65583;SDS011;73032;43.592;1.458;2023-10-13T10:56:39;6.85;;;3.35;;
65583;SDS011;73032;43.592;1.458;2023-10-13T10:59:06;6.22;;;3.47;;
65583;SDS011;73032;43.592;1.458;2023-10-13T11:01:42;8.05;;;3.50;;
65583;SDS011;73032;43.592;1.458;2023-10-13T11:04:14;7.82;;;3.53;;
65583;SDS011;73032;43.592;1.458;2023-10-13T11:06:46;5.05;;;2.90;;
65583;SDS011;73032;43.592;1.458;2023-10-13T11:09:13;5.65;;;3.22;;
65583;SDS011;73032;43.592;1.458;2023-10-13T11:12:10;4.03;;;2.83;;
65583;SDS011;73032;43.592;1.458;2023-10-13T11:15:07;6.68;;;2.90;;
65583;SDS011;73032;43.592;1.458;2023-10-13T11:17:48;7.22;;;3.13;;
65583;SDS011;73032;43.592;1.458;2023-10-13T11:20:23;4.82;;;2.83;;
65583;SDS011;73032;43.592;1.458;2023-10-13T11:23:00;5.82;;;2.90;;
65583;SDS011;73032;43.592;1.458;2023-10-13T11:25:31;4.70;;;2.95;;
65583;SDS011;73032;43.592;1.458;2023-10-13T11:30:47;6.88;;;3.00;;
65583;SDS011;73032;43.592;1.458;2023-10-13T11:33:18;6.15;;;3.10;;
65583;SDS011;73032;43.592;1.458;2023-10-13T11:35:55;5.55;;;2.80;;
65583;SDS011;73032;43.592;1.458;2023-10-13T11:41:03;4.35;;;2.55;;
65583;SDS011;73032;43.592;1.458;2023-10-13T11:43:31;3.00;;;2.20;;
65583;SDS011;73032;43.592;1.458;2023-10-13T11:46:06;6.38;;;2.75;;
65583;SDS011;73032;43.592;1.458;2023-10-13T11:48:36;3.92;;;2.40;;
65583;SDS011;73032;43.592;1.458;2023-10-13T11:51:04;3.53;;;2.13;;
65583;SDS011;73032;43.592;1.458;2023-10-13T11:53:35;5.50;;;2.50;;
65583;SDS011;73032;43.592;1.458;2023-10-13T11:56:03;6.65;;;2.80;;
65583;SDS011;73032;43.592;1.458;2023-10-13T11:58:36;5.90;;;2.65;;
65583;SDS011;73032;43.592;1.458;2023-10-13T12:01:05;4.57;;;2.40;;
65583;SDS011;73032;43.592;1.458;2023-10-13T12:06:20;6.88;;;2.42;;
65583;SDS011;73032;43.592;1.458;2023-10-13T12:11:49;7.15;;;2.58;;
65583;SDS011;73032;43.592;1.458;2023-10-13T12:14:17;7.70;;;2.55;;
65583;SDS011;73032;43.592;1.458;2023-10-13T12:17:04;5.60;;;2.50;;
65583;SDS011;73032;43.592;1.458;2023-10-13T12:19:31;5.13;;;2.50;;
65583;SDS011;73032;43.592;1.458;2023-10-13T12:21:58;6.28;;;2.30;;
65583;SDS011;73032;43.592;1.458;2023-10-13T12:24:31;5.80;;;2.80;;
65583;SDS011;73032;43.592;1.458;2023-10-13T12:27:01;3.57;;;2.50;;
65583;SDS011;73032;43.592;1.458;2023-10-13T12:29:50;5.85;;;2.70;;
65583;SDS011;73032;43.592;1.458;2023-10-13T12:32:23;4.22;;;2.53;;
65583;SDS011;73032;43.592;1.458;2023-10-13T12:34:57;5.85;;;2.35;;
65583;SDS011;73032;43.592;1.458;2023-10-13T12:37:25;6.53;;;2.70;;
65583;SDS011;73032;43.592;1.458;2023-10-13T12:40:14;6.95;;;2.38;;
65583;SDS011;73032;43.592;1.458;2023-10-13T12:43:00;7.40;;;2.63;;
65583;SDS011;73032;43.592;1.458;2023-10-13T12:45:46;5.97;;;2.20;;
65583;SDS011;73032;43.592;1.458;2023-10-13T12:48:33;5.13;;;2.50;;
65583;SDS011;73032;43.592;1.458;2023-10-13T12:51:20;5.03;;;2.40;;
65583;SDS011;73032;43.592;1.458;2023-10-13T12:54:07;4.32;;;2.47;;
65583;SDS011;73032;43.592;1.458;2023-10-13T12:56:42;7.47;;;2.30;;
65583;SDS011;73032;43.592;1.458;2023-10-13T12:59:09;4.35;;;2.25;;
65583;SDS011;73032;43.592;1.458;2023-10-13T13:01:40;4.75;;;2.20;;
65583;SDS011;73032;43.592;1.458;2023-10-13T13:04:10;5.07;;;2.35;;
65583;SDS011;73032;43.592;1.458;2023-10-13T13:06:47;8.85;;;2.42;;
65583;SDS011;73032;43.592;1.458;2023-10-13T13:09:15;7.38;;;2.25;;
65583;SDS011;73032;43.592;1.458;2023-10-13T13:11:42;7.22;;;2.30;;
65583;SDS011;73032;43.592;1.458;2023-10-13T13:14:08;5.55;;;2.10;;
65583;SDS011;73032;43.592;1.458;2023-10-13T13:16:35;5.85;;;2.60;;
65583;SDS011;73032;43.592;1.458;2023-10-13T13:19:05;4.75;;;1.98;;
65583;SDS011;73032;43.592;1.458;2023-10-13T13:21:40;5.85;;;2.20;;
65583;SDS011;73032;43.592;1.458;2023-10-13T13:24:07;3.92;;;2.20;;
65583;SDS011;73032;43.592;1.458;2023-10-13T13:26:40;4.13;;;2.10;;
65583;SDS011;73032;43.592;1.458;2023-10-13T13:29:07;5.90;;;2.15;;
65583;SDS011;73032;43.592;1.458;2023-10-13T13:31:37;5.70;;;2.28;;
65583;SDS011;73032;43.592;1.458;2023-10-13T13:34:12;4.75;;;2.40;;
65583;SDS011;73032;43.592;1.458;2023-10-13T13:36:39;8.30;;;2.38;;
65583;SDS011;73032;43.592;1.458;2023-10-13T13:39:11;5.10;;;2.10;;
65583;SDS011;73032;43.592;1.458;2023-10-13T13:41:37;3.83;;;2.28;;
65583;SDS011;73032;43.592;1.458;2023-10-13T13:44:04;6.10;;;2.20;;
65583;SDS011;73032;43.592;1.458;2023-10-13T13:46:40;5.28;;;2.10;;
65583;SDS011;73032;43.592;1.458;2023-10-13T13:49:10;6.65;;;2.35;;
65583;SDS011;73032;43.592;1.458;2023-10-13T13:51:54;4.47;;;1.90;;
65583;SDS011;73032;43.592;1.458;2023-10-13T13:54:21;4.25;;;2.20;;
65583;SDS011;73032;43.592;1.458;2023-10-13T13:56:48;7.68;;;2.17;;
65583;SDS011;73032;43.592;1.458;2023-10-13T13:59:16;4.70;;;2.10;;
65583;SDS011;73032;43.592;1.458;2023-10-13T14:04:13;5.07;;;2.28;;
65583;SDS011;73032;43.592;1.458;2023-10-13T14:06:44;3.28;;;2.00;;
65583;SDS011;73032;43.592;1.458;2023-10-13T14:09:13;4.55;;;2.38;;
65583;SDS011;73032;43.592;1.458;2023-10-13T14:11:42;7.25;;;2.22;;
65583;SDS011;73032;43.592;1.458;2023-10-13T14:14:27;4.03;;;1.88;;
65583;SDS011;73032;43.592;1.458;2023-10-13T14:16:54;5.03;;;2.25;;
65583;SDS011;73032;43.592;1.458;2023-10-13T14:22:07;6.07;;;2.40;;
65583;SDS011;73032;43.592;1.458;2023-10-13T14:24:34;5.03;;;2.15;;
65583;SDS011;73032;43.592;1.458;2023-10-13T14:27:02;5.13;;;2.28;;
65583;SDS011;73032;43.592;1.458;2023-10-13T14:29:39;4.65;;;2.20;;
65583;SDS011;73032;43.592;1.458;2023-10-13T14:32:14;4.70;;;2.28;;
65583;SDS011;73032;43.592;1.458;2023-10-13T14:34:44;5.20;;;2.20;;
65583;SDS011;73032;43.592;1.458;2023-10-13T14:37:17;5.38;;;2.17;;
65583;SDS011;73032;43.592;1.458;2023-10-13T14:39:53;2.85;;;1.80;;
65583;SDS011;73032;43.592;1.458;2023-10-13T14:42:29;7.07;;;2.10;;
65583;SDS011;73032;43.592;1.458;2023-10-13T14:45:02;5.15;;;2.38;;
65583;SDS011;73032;43.592;1.458;2023-10-13T14:47:42;7.85;;;2.30;;
65583;SDS011;73032;43.592;1.458;2023-10-13T14:50:10;6.93;;;2.00;;
65583;SDS011;73032;43.592;1.458;2023-10-13T14:52:49;7.15;;;2.67;;
65583;SDS011;73032;43.592;1.458;2023-10-13T14:55:17;5.88;;;2.38;;
65583;SDS011;73032;43.592;1.458;2023-10-13T14:58:05;8.40;;;2.13;;
65583;SDS011;73032;43.592;1.458;2023-10-13T15:00:34;5.88;;;2.35;;
65583;SDS011;73032;43.592;1.458;2023-10-13T15:03:01;5.22;;;2.03;;
65583;SDS011;73032;43.592;1.458;2023-10-13T15:05:27;6.95;;;2.63;;
65583;SDS011;73032;43.592;1.458;2023-10-13T15:07:59;6.10;;;2.30;;
65583;SDS011;73032;43.592;1.458;2023-10-13T15:10:26;6.38;;;2.22;;
65583;SDS011;73032;43.592;1.458;2023-10-13T15:12:53;4.65;;;2.17;;
65583;SDS011;73032;43.592;1.458;2023-10-13T15:15:19;4.43;;;2.00;;
65583;SDS011;73032;43.592;1.458;2023-10-13T15:17:46;4.80;;;2.20;;
65583;SDS011;73032;43.592;1.458;2023-10-13T15:20:14;5.07;;;2.35;;
65583;SDS011;73032;43.592;1.458;2023-10-13T15:22:44;5.10;;;2.45;;
65583;SDS011;73032;43.592;1.458;2023-10-13T15:25:15;18.70;;;3.13;;
65583;SDS011;73032;43.592;1.458;2023-10-13T15:27:58;5.90;;;2.20;;
65583;SDS011;73032;43.592;1.458;2023-10-13T15:30:35;7.70;;;2.58;;
65583;SDS011;73032;43.592;1.458;2023-10-13T15:33:25;4.18;;;2.25;;
65583;SDS011;73032;43.592;1.458;2023-10-13T15:35:52;6.55;;;2.38;;
65583;SDS011;73032;43.592;1.458;2023-10-13T15:38:19;6.82;;;2.70;;
65583;SDS011;73032;43.592;1.458;2023-10-13T15:40:48;7.88;;;2.38;;
65583;SDS011;73032;43.592;1.458;2023-10-13T15:43:21;5.47;;;2.20;;
65583;SDS011;73032;43.592;1.458;2023-10-13T15:45:48;5.15;;;2.47;;
65583;SDS011;73032;43.592;1.458;2023-10-13T15:48:15;5.35;;;2.70;;
65583;SDS011;73032;43.592;1.458;2023-10-13T15:50:46;7.88;;;2.45;;
65583;SDS011;73032;43.592;1.458;2023-10-13T15:53:16;5.03;;;2.35;;
65583;SDS011;73032;43.592;1.458;2023-10-13T15:55:43;5.15;;;2.20;;
65583;SDS011;73032;43.592;1.458;2023-10-13T15:58:12;6.90;;;2.60;;
65583;SDS011;73032;43.592;1.458;2023-10-13T16:00:40;8.23;;;2.33;;
65583;SDS011;73032;43.592;1.458;2023-10-13T16:03:07;4.50;;;2.50;;
65583;SDS011;73032;43.592;1.458;2023-10-13T16:05:38;4.45;;;2.30;;
65583;SDS011;73032;43.592;1.458;2023-10-13T16:08:09;4.28;;;2.30;;
65583;SDS011;73032;43.592;1.458;2023-10-13T16:10:40;7.05;;;2.40;;
65583;SDS011;73032;43.592;1.458;2023-10-13T16:13:07;6.45;;;2.63;;
65583;SDS011;73032;43.592;1.458;2023-10-13T16:15:42;3.47;;;2.30;;
65583;SDS011;73032;43.592;1.458;2023-10-13T16:18:10;7.43;;;2.80;;